createdAt,value
2022-09-23T00:00:40.207Z,52.70
2022-09-23T00:05:43.030Z,52.70
2022-09-23T00:10:47.554Z,52.90
2022-09-23T00:15:50.257Z,52.70
2022-09-23T00:20:52.841Z,52.80
2022-09-23T00:26:00.562Z,52.80
2022-09-23T00:31:03.521Z,52.70
2022-09-23T00:36:07.322Z,52.80
2022-09-23T00:41:11.759Z,52.80
2022-09-23T00:46:17.526Z,52.80
2022-09-23T00:51:22.185Z,52.80
2022-09-23T00:56:26.325Z,52.50
2022-09-23T01:01:29.765Z,52.70
2022-09-23T01:06:32.837Z,52.60
2022-09-23T01:11:42.502Z,52.70
2022-09-23T01:16:46.569Z,52.70
2022-09-23T01:21:53.669Z,52.80
2022-09-23T01:27:01.977Z,52.60
2022-09-23T01:32:09.972Z,52.80
2022-09-23T01:37:15.633Z,52.70
2022-09-23T01:42:23.757Z,52.60
2022-09-23T01:47:30.450Z,52.70
2022-09-23T01:52:36.826Z,52.60
2022-09-23T01:57:41.327Z,52.40
2022-09-23T02:02:49.990Z,52.50
2022-09-23T02:07:54.123Z,52.60
2022-09-23T02:12:59.277Z,52.40
2022-09-23T02:18:04.865Z,52.40
2022-09-23T02:23:09.291Z,52.60
2022-09-23T02:28:14.277Z,52.50
2022-09-23T02:33:21.525Z,52.50
2022-09-23T02:38:29.371Z,52.30
2022-09-23T02:43:35.547Z,52.30
2022-09-23T02:48:42.438Z,52.40
2022-09-23T02:53:45.738Z,52.50
2022-09-23T02:58:49.149Z,52.40
2022-09-23T03:03:57.061Z,52.60
2022-09-23T03:09:03.109Z,52.50
2022-09-23T03:14:17.270Z,52.70
2022-09-23T03:19:24.998Z,52.30
2022-09-23T03:24:30.545Z,52.40
2022-09-23T03:29:37.237Z,52.30
2022-09-23T03:34:42.365Z,52.30
2022-09-23T03:39:48.954Z,52.50
2022-09-23T03:44:54.034Z,52.40
2022-09-23T03:49:57.953Z,52.30
2022-09-23T03:55:01.299Z,52.10
2022-09-23T04:00:05.286Z,52.20
2022-09-23T04:05:09.946Z,52.20
2022-09-23T04:10:12.546Z,52.20
2022-09-23T04:15:15.258Z,52.30
2022-09-23T04:20:19.220Z,52.10
2022-09-23T04:25:21.827Z,52.00
2022-09-23T04:30:24.398Z,52.00
2022-09-23T04:35:28.894Z,52.00
2022-09-23T04:40:31.552Z,52.10
2022-09-23T04:45:34.178Z,51.80
2022-09-23T04:50:38.565Z,52.10
2022-09-23T04:55:43.429Z,52.20
2022-09-23T05:00:46.545Z,52.00
2022-09-23T05:05:50.581Z,52.10
2022-09-23T05:10:57.452Z,51.90
2022-09-23T05:16:01.065Z,52.20
2022-09-23T05:21:05.262Z,52.00
2022-09-23T05:26:09.232Z,52.00
2022-09-23T05:31:18.859Z,52.00
2022-09-23T05:36:26.671Z,51.90
2022-09-23T05:41:29.261Z,52.00
2022-09-23T05:46:33.061Z,51.90
2022-09-23T05:51:37.147Z,51.80
2022-09-23T05:56:39.731Z,51.90
2022-09-23T06:01:45.194Z,52.00
2022-09-23T06:06:49.218Z,51.90
2022-09-23T06:11:51.957Z,52.00
2022-09-23T06:16:54.530Z,51.70
2022-09-23T06:21:58.818Z,51.80
2022-09-23T06:27:02.436Z,51.90
2022-09-23T06:32:05.166Z,51.80
2022-09-23T06:37:18.221Z,52.00
2022-09-23T06:42:22.218Z,51.80
2022-09-23T06:47:24.801Z,51.60
2022-09-23T06:52:28.731Z,51.30
2022-09-23T06:57:31.573Z,51.50
2022-09-23T07:02:34.290Z,52.00
2022-09-23T07:07:39.299Z,52.30
2022-09-23T07:12:42.178Z,52.50
2022-09-23T07:17:44.845Z,52.20
2022-09-23T07:22:52.158Z,52.30
2022-09-23T07:27:56.682Z,52.60
2022-09-23T07:32:59.382Z,52.60
2022-09-23T07:38:03.367Z,53.70
2022-09-23T07:43:06.108Z,54.10
2022-09-23T07:48:08.727Z,54.30
2022-09-23T07:53:13.510Z,53.90
2022-09-23T07:58:16.103Z,54.10
2022-09-23T08:03:18.738Z,53.50
2022-09-23T08:08:22.691Z,53.60
2022-09-23T08:13:25.313Z,53.70
2022-09-23T08:18:27.935Z,53.80
2022-09-23T08:23:33.493Z,53.90
2022-09-23T08:28:36.769Z,54.00
2022-09-23T08:33:39.781Z,53.70
2022-09-23T08:38:43.737Z,53.90
2022-09-23T08:43:49.365Z,54.10
2022-09-23T08:48:52.593Z,54.20
2022-09-23T08:53:56.594Z,54.10
2022-09-23T08:59:02.838Z,53.90
2022-09-23T09:04:14.055Z,54.20
2022-09-23T09:09:22.225Z,54.30
2022-09-23T09:14:26.338Z,54.20
2022-09-23T09:19:43.399Z,54.20
2022-09-23T09:24:49.617Z,54.10
2022-09-23T09:29:53.524Z,54.00
2022-09-23T09:34:58.551Z,54.00
2022-09-23T09:40:02.871Z,54.00
2022-09-23T09:45:11.496Z,54.00
2022-09-23T09:50:21.142Z,54.40
2022-09-23T09:55:28.719Z,54.20
2022-09-23T10:00:43.796Z,54.40
2022-09-23T10:05:52.210Z,54.10
2022-09-23T10:11:01.017Z,53.80
2022-09-23T10:16:04.386Z,53.60
2022-09-23T10:21:08.736Z,53.70
2022-09-23T10:26:13.083Z,52.50
2022-09-23T10:31:16.603Z,52.60
2022-09-23T10:36:19.457Z,52.70
2022-09-23T10:41:50.441Z,52.50
2022-09-23T10:46:59.049Z,52.60
2022-09-23T10:52:07.641Z,52.60
2022-09-23T10:57:37.988Z,52.50
2022-09-23T11:02:49.273Z,52.60
2022-09-23T11:07:56.842Z,53.70
2022-09-23T11:13:04.490Z,55.00
2022-09-23T11:18:15.795Z,54.40
2022-09-23T11:23:42.288Z,55.50
2022-09-23T11:28:55.261Z,55.00
2022-09-23T11:34:07.769Z,55.30
2022-09-23T11:39:15.001Z,55.30
2022-09-23T11:44:21.156Z,55.30
2022-09-23T11:49:27.621Z,55.30
2022-09-23T11:54:32.260Z,55.10
2022-09-23T11:59:41.014Z,55.50
2022-09-23T12:04:55.887Z,55.40
2022-09-23T12:10:03.385Z,55.00
2022-09-23T12:15:12.474Z,55.00
2022-09-23T12:20:33.006Z,54.80
2022-09-23T12:25:40.323Z,54.60
2022-09-23T12:30:44.486Z,54.80
2022-09-23T12:35:47.212Z,54.80
2022-09-23T12:40:53.103Z,54.70
2022-09-23T12:46:17.392Z,54.60
2022-09-23T12:51:21.122Z,54.60
2022-09-23T12:56:26.050Z,54.80
2022-09-23T13:01:36.315Z,54.60
2022-09-23T13:06:40.816Z,54.50
2022-09-23T13:11:44.046Z,54.30
2022-09-23T13:16:48.663Z,54.30
2022-09-23T13:22:00.603Z,54.40
2022-09-23T13:27:06.359Z,54.50
2022-09-23T13:32:13.406Z,54.70
2022-09-23T13:37:22.420Z,54.20
2022-09-23T13:42:27.557Z,54.30
2022-09-23T13:47:32.377Z,54.20
2022-09-23T13:52:34.983Z,54.40
2022-09-23T13:57:37.815Z,54.60
2022-09-23T14:02:44.516Z,54.40
2022-09-23T14:07:56.549Z,54.60
2022-09-23T14:13:01.834Z,54.70
2022-09-23T14:18:07.207Z,55.10
2022-09-23T14:23:14.126Z,55.20
2022-09-23T14:28:18.049Z,55.10
2022-09-23T14:33:24.224Z,55.10
2022-09-23T14:38:46.918Z,55.30
2022-09-23T14:43:51.624Z,55.30
2022-09-23T14:49:08.305Z,55.40
2022-09-23T14:54:38.246Z,55.50
2022-09-23T14:59:48.157Z,56.00
2022-09-23T15:04:50.747Z,56.20
2022-09-23T15:09:53.375Z,56.60
2022-09-23T15:14:58.446Z,56.70
2022-09-23T15:20:03.029Z,56.50
2022-09-23T15:25:27.520Z,56.30
2022-09-23T15:30:31.946Z,56.30
2022-09-23T15:35:34.990Z,56.60
2022-09-23T15:40:39.006Z,56.80
2022-09-23T15:45:45.502Z,56.60
2022-09-23T15:50:48.213Z,56.40
2022-09-23T15:55:51.311Z,56.30
2022-09-23T16:00:57.236Z,56.30
2022-09-23T16:06:02.263Z,56.30
2022-09-23T16:11:06.052Z,56.40
2022-09-23T16:16:10.326Z,56.30
2022-09-23T16:21:13.498Z,56.40
2022-09-23T16:26:17.634Z,56.40
2022-09-23T16:31:22.120Z,56.30
2022-09-23T16:36:26.847Z,56.30
2022-09-23T16:41:31.371Z,56.30
2022-09-23T16:46:35.629Z,56.50
2022-09-23T16:51:38.996Z,56.60
2022-09-23T16:56:44.869Z,56.60
2022-09-23T17:02:06.498Z,56.70
2022-09-23T17:07:09.219Z,56.90
2022-09-23T17:12:15.067Z,57.80
2022-09-23T17:17:18.998Z,57.60
2022-09-23T17:22:21.577Z,57.80
2022-09-23T17:27:24.841Z,58.00
2022-09-23T17:32:28.769Z,57.80
2022-09-23T17:37:31.898Z,57.90
2022-09-23T17:42:35.553Z,58.00
2022-09-23T17:47:41.822Z,58.10
2022-09-23T17:52:44.631Z,58.10
2022-09-23T17:57:50.970Z,57.80
2022-09-23T18:02:54.902Z,57.90
2022-09-23T18:07:57.522Z,58.00
2022-09-23T18:13:00.116Z,58.00
2022-09-23T18:18:04.207Z,58.20
2022-09-23T18:23:07.115Z,58.20
2022-09-23T18:28:09.787Z,58.10
2022-09-23T18:33:15.454Z,58.30
2022-09-23T18:38:18.148Z,58.10
2022-09-23T18:43:24.575Z,58.10
2022-09-23T18:48:48.458Z,58.20
2022-09-23T18:53:51.164Z,58.10
2022-09-23T18:58:54.226Z,58.10
2022-09-23T19:03:59.926Z,58.10
2022-09-23T19:09:02.785Z,58.20
2022-09-23T19:14:06.525Z,58.20
2022-09-23T19:19:10.825Z,58.20
2022-09-23T19:24:15.654Z,58.30
2022-09-23T19:29:21.540Z,58.50
2022-09-23T19:34:29.200Z,58.30
2022-09-23T19:39:31.928Z,58.40
2022-09-23T19:44:42.107Z,58.20
2022-09-23T19:49:47.303Z,58.30
2022-09-23T19:54:49.917Z,58.50
2022-09-23T19:59:52.534Z,58.30
2022-09-23T20:04:56.482Z,58.40
2022-09-23T20:09:59.066Z,58.30
2022-09-23T20:15:02.773Z,58.20
2022-09-23T20:20:07.327Z,58.20
2022-09-23T20:25:13.360Z,58.00
2022-09-23T20:30:16.234Z,58.10
2022-09-23T20:35:20.233Z,58.30
2022-09-23T20:40:22.902Z,58.40
2022-09-23T20:45:25.551Z,58.40
2022-09-23T20:50:29.846Z,58.40
2022-09-23T20:55:32.541Z,58.20
2022-09-23T21:00:35.243Z,58.50
2022-09-23T21:05:39.751Z,58.10
2022-09-23T21:10:43.495Z,58.30
2022-09-23T21:15:46.238Z,58.30
2022-09-23T21:20:56.038Z,58.10
2022-09-23T21:26:01.696Z,58.40
2022-09-23T21:31:05.492Z,58.40
2022-09-23T21:36:10.424Z,58.30
2022-09-23T21:41:13.062Z,58.70
2022-09-23T21:46:20.135Z,58.30
2022-09-23T21:51:25.563Z,58.60
2022-09-23T21:56:29.199Z,58.40
2022-09-23T22:01:33.554Z,58.50
2022-09-23T22:06:38.360Z,58.60
2022-09-23T22:11:58.991Z,58.50
2022-09-23T22:17:02.785Z,58.30
2022-09-23T22:22:13.336Z,58.40
2022-09-23T22:27:16.995Z,58.50
2022-09-23T22:32:41.254Z,58.50
2022-09-23T22:37:45.707Z,58.50
2022-09-23T22:42:48.639Z,58.60
2022-09-23T22:47:54.027Z,58.60
2022-09-23T22:52:58.031Z,58.50
2022-09-23T22:58:15.333Z,58.70
2022-09-23T23:03:23.462Z,58.70
2022-09-23T23:08:27.688Z,58.70
2022-09-23T23:13:31.320Z,59.00
2022-09-23T23:18:35.158Z,58.90
2022-09-23T23:23:40.224Z,59.40
2022-09-23T23:28:43.629Z,59.90
2022-09-23T23:33:46.337Z,59.50
2022-09-23T23:38:51.524Z,59.80
2022-09-23T23:43:55.694Z,59.80
2022-09-23T23:48:58.756Z,59.80
2022-09-23T23:54:02.681Z,59.90
2022-09-23T23:59:05.294Z,60.20
